sensor_id;sensor_type;location;lat;lon;timestamp;P1;durP1;ratioP1;P2;durP2;ratioP2
73779;SDS011;62093;37.614;15.072;2022-08-21T00:02:18;4.38;;;2.30;;
73779;SDS011;62093;37.614;15.072;2022-08-21T00:04:45;4.90;;;2.50;;
73779;SDS011;62093;37.614;15.072;2022-08-21T00:07:11;5.00;;;2.40;;
73779;SDS011;62093;37.614;15.072;2022-08-21T00:09:37;4.72;;;2.50;;
73779;SDS011;62093;37.614;15.072;2022-08-21T00:12:03;4.57;;;2.22;;
73779;SDS011;62093;37.614;15.072;2022-08-21T00:14:30;5.07;;;2.60;;
73779;SDS011;62093;37.614;15.072;2022-08-21T00:16:56;4.90;;;2.67;;
73779;SDS011;62093;37.614;15.072;2022-08-21T00:19:23;4.68;;;2.63;;
73779;SDS011;62093;37.614;15.072;2022-08-21T00:21:51;4.32;;;2.28;;
73779;SDS011;62093;37.614;15.072;2022-08-21T00:24:18;4.70;;;2.63;;
73779;SDS011;62093;37.614;15.072;2022-08-21T00:26:45;4.47;;;2.08;;
73779;SDS011;62093;37.614;15.072;2022-08-21T00:29:12;4.23;;;2.43;;
73779;SDS011;62093;37.614;15.072;2022-08-21T00:31:39;4.32;;;2.50;;
73779;SDS011;62093;37.614;15.072;2022-08-21T00:34:06;4.15;;;2.35;;
73779;SDS011;62093;37.614;15.072;2022-08-21T00:36:33;6.60;;;2.60;;
73779;SDS011;62093;37.614;15.072;2022-08-21T00:38:59;5.10;;;2.75;;
73779;SDS011;62093;37.614;15.072;2022-08-21T00:41:26;5.37;;;2.67;;
73779;SDS011;62093;37.614;15.072;2022-08-21T00:43:52;4.90;;;2.60;;
73779;SDS011;62093;37.614;15.072;2022-08-21T00:46:18;4.60;;;2.55;;
73779;SDS011;62093;37.614;15.072;2022-08-21T00:48:45;4.55;;;2.33;;
73779;SDS011;62093;37.614;15.072;2022-08-21T00:51:13;4.20;;;2.10;;
73779;SDS011;62093;37.614;15.072;2022-08-21T00:53:47;4.57;;;2.42;;
73779;SDS011;62093;37.614;15.072;2022-08-21T00:56:17;4.22;;;2.15;;
73779;SDS011;62093;37.614;15.072;2022-08-21T00:58:45;4.80;;;2.28;;
73779;SDS011;62093;37.614;15.072;2022-08-21T01:01:11;4.35;;;2.33;;
73779;SDS011;62093;37.614;15.072;2022-08-21T01:03:37;5.93;;;2.60;;
73779;SDS011;62093;37.614;15.072;2022-08-21T01:06:03;4.47;;;2.50;;
73779;SDS011;62093;37.614;15.072;2022-08-21T01:08:30;4.80;;;2.30;;
73779;SDS011;62093;37.614;15.072;2022-08-21T01:10:57;4.50;;;2.38;;
73779;SDS011;62093;37.614;15.072;2022-08-21T01:13:25;4.70;;;2.60;;
73779;SDS011;62093;37.614;15.072;2022-08-21T01:15:54;4.63;;;2.53;;
73779;SDS011;62093;37.614;15.072;2022-08-21T01:18:21;4.82;;;2.50;;
73779;SDS011;62093;37.614;15.072;2022-08-21T01:23:41;4.30;;;2.38;;
73779;SDS011;62093;37.614;15.072;2022-08-21T01:26:10;4.57;;;2.50;;
73779;SDS011;62093;37.614;15.072;2022-08-21T01:28:37;4.38;;;2.28;;
73779;SDS011;62093;37.614;15.072;2022-08-21T01:31:07;4.70;;;2.30;;
73779;SDS011;62093;37.614;15.072;2022-08-21T01:33:35;4.65;;;2.33;;
73779;SDS011;62093;37.614;15.072;2022-08-21T01:36:01;4.72;;;2.40;;
73779;SDS011;62093;37.614;15.072;2022-08-21T01:38:27;4.33;;;2.40;;
73779;SDS011;62093;37.614;15.072;2022-08-21T01:40:53;5.10;;;2.60;;
73779;SDS011;62093;37.614;15.072;2022-08-21T01:43:19;5.30;;;2.28;;
73779;SDS011;62093;37.614;15.072;2022-08-21T01:45:45;4.87;;;2.70;;
73779;SDS011;62093;37.614;15.072;2022-08-21T01:48:10;4.38;;;2.50;;
73779;SDS011;62093;37.614;15.072;2022-08-21T01:50:37;4.60;;;2.30;;
73779;SDS011;62093;37.614;15.072;2022-08-21T01:53:03;4.90;;;2.40;;
73779;SDS011;62093;37.614;15.072;2022-08-21T01:55:29;5.73;;;2.80;;
73779;SDS011;62093;37.614;15.072;2022-08-21T01:57:56;4.82;;;2.70;;
73779;SDS011;62093;37.614;15.072;2022-08-21T02:00:23;4.43;;;2.55;;
73779;SDS011;62093;37.614;15.072;2022-08-21T02:02:49;4.80;;;2.58;;
73779;SDS011;62093;37.614;15.072;2022-08-21T02:05:15;4.60;;;2.20;;
73779;SDS011;62093;37.614;15.072;2022-08-21T02:07:42;4.65;;;2.50;;
73779;SDS011;62093;37.614;15.072;2022-08-21T02:10:11;4.57;;;2.53;;
73779;SDS011;62093;37.614;15.072;2022-08-21T02:12:40;5.70;;;2.20;;
73779;SDS011;62093;37.614;15.072;2022-08-21T02:15:06;4.40;;;2.00;;
73779;SDS011;62093;37.614;15.072;2022-08-21T02:17:37;4.33;;;2.30;;
73779;SDS011;62093;37.614;15.072;2022-08-21T02:20:18;5.63;;;2.38;;
73779;SDS011;62093;37.614;15.072;2022-08-21T02:22:47;4.10;;;2.38;;
73779;SDS011;62093;37.614;15.072;2022-08-21T02:25:13;4.30;;;2.13;;
73779;SDS011;62093;37.614;15.072;2022-08-21T02:27:40;4.75;;;2.30;;
73779;SDS011;62093;37.614;15.072;2022-08-21T02:30:08;4.70;;;2.10;;
73779;SDS011;62093;37.614;15.072;2022-08-21T02:32:39;4.80;;;2.67;;
73779;SDS011;62093;37.614;15.072;2022-08-21T02:35:05;4.88;;;2.55;;
73779;SDS011;62093;37.614;15.072;2022-08-21T02:37:31;4.72;;;2.38;;
73779;SDS011;62093;37.614;15.072;2022-08-21T02:39:58;5.00;;;2.30;;
73779;SDS011;62093;37.614;15.072;2022-08-21T02:42:25;4.68;;;2.33;;
73779;SDS011;62093;37.614;15.072;2022-08-21T02:44:51;4.13;;;2.10;;
73779;SDS011;62093;37.614;15.072;2022-08-21T02:47:17;4.45;;;2.50;;
73779;SDS011;62093;37.614;15.072;2022-08-21T02:49:42;5.23;;;2.70;;
73779;SDS011;62093;37.614;15.072;2022-08-21T02:52:08;4.53;;;2.53;;
73779;SDS011;62093;37.614;15.072;2022-08-21T02:54:34;5.03;;;2.38;;
73779;SDS011;62093;37.614;15.072;2022-08-21T02:57:00;5.00;;;2.43;;
73779;SDS011;62093;37.614;15.072;2022-08-21T02:59:26;4.53;;;2.17;;
73779;SDS011;62093;37.614;15.072;2022-08-21T03:01:52;4.97;;;2.47;;
73779;SDS011;62093;37.614;15.072;2022-08-21T03:04:18;4.70;;;2.33;;
73779;SDS011;62093;37.614;15.072;2022-08-21T03:06:45;5.13;;;2.50;;
73779;SDS011;62093;37.614;15.072;2022-08-21T03:09:11;4.00;;;2.10;;
73779;SDS011;62093;37.614;15.072;2022-08-21T03:11:36;4.73;;;2.83;;
73779;SDS011;62093;37.614;15.072;2022-08-21T03:14:02;4.55;;;2.42;;
73779;SDS011;62093;37.614;15.072;2022-08-21T03:16:30;5.15;;;2.70;;
73779;SDS011;62093;37.614;15.072;2022-08-21T03:18:56;4.53;;;2.50;;
73779;SDS011;62093;37.614;15.072;2022-08-21T03:21:22;4.33;;;2.17;;
73779;SDS011;62093;37.614;15.072;2022-08-21T03:23:48;4.63;;;2.30;;
73779;SDS011;62093;37.614;15.072;2022-08-21T03:26:13;4.30;;;2.10;;
73779;SDS011;62093;37.614;15.072;2022-08-21T03:28:39;4.40;;;2.35;;
73779;SDS011;62093;37.614;15.072;2022-08-21T03:31:05;4.28;;;2.67;;
73779;SDS011;62093;37.614;15.072;2022-08-21T03:33:31;4.10;;;2.30;;
73779;SDS011;62093;37.614;15.072;2022-08-21T03:36:05;4.63;;;2.28;;
73779;SDS011;62093;37.614;15.072;2022-08-21T03:38:32;4.72;;;2.58;;
73779;SDS011;62093;37.614;15.072;2022-08-21T03:40:59;4.45;;;2.47;;
73779;SDS011;62093;37.614;15.072;2022-08-21T03:43:26;4.32;;;2.45;;
73779;SDS011;62093;37.614;15.072;2022-08-21T03:45:53;4.87;;;2.47;;
73779;SDS011;62093;37.614;15.072;2022-08-21T03:48:19;4.07;;;2.42;;
73779;SDS011;62093;37.614;15.072;2022-08-21T03:50:45;4.78;;;2.38;;
73779;SDS011;62093;37.614;15.072;2022-08-21T03:53:13;4.95;;;2.38;;
73779;SDS011;62093;37.614;15.072;2022-08-21T03:55:39;4.97;;;2.85;;
73779;SDS011;62093;37.614;15.072;2022-08-21T03:58:05;4.10;;;2.03;;
73779;SDS011;62093;37.614;15.072;2022-08-21T04:00:31;4.22;;;2.08;;
73779;SDS011;62093;37.614;15.072;2022-08-21T04:02:57;4.45;;;2.10;;
73779;SDS011;62093;37.614;15.072;2022-08-21T04:05:23;4.60;;;2.30;;
73779;SDS011;62093;37.614;15.072;2022-08-21T04:07:56;4.55;;;2.25;;
73779;SDS011;62093;37.614;15.072;2022-08-21T04:10:24;4.45;;;2.33;;
73779;SDS011;62093;37.614;15.072;2022-08-21T04:12:51;4.57;;;2.38;;
73779;SDS011;62093;37.614;15.072;2022-08-21T04:15:18;4.75;;;2.42;;
73779;SDS011;62093;37.614;15.072;2022-08-21T04:17:45;4.10;;;2.40;;
73779;SDS011;62093;37.614;15.072;2022-08-21T04:20:11;4.40;;;2.50;;
73779;SDS011;62093;37.614;15.072;2022-08-21T04:22:38;4.30;;;2.20;;
73779;SDS011;62093;37.614;15.072;2022-08-21T04:25:04;5.13;;;2.50;;
73779;SDS011;62093;37.614;15.072;2022-08-21T04:27:30;4.07;;;2.17;;
73779;SDS011;62093;37.614;15.072;2022-08-21T04:29:56;4.20;;;2.33;;
73779;SDS011;62093;37.614;15.072;2022-08-21T04:32:25;4.25;;;2.00;;
73779;SDS011;62093;37.614;15.072;2022-08-21T04:35:02;4.20;;;2.22;;
73779;SDS011;62093;37.614;15.072;2022-08-21T04:37:30;4.40;;;2.30;;
73779;SDS011;62093;37.614;15.072;2022-08-21T04:39:56;4.53;;;2.30;;
73779;SDS011;62093;37.614;15.072;2022-08-21T04:42:24;4.85;;;2.58;;
73779;SDS011;62093;37.614;15.072;2022-08-21T04:44:50;5.55;;;2.50;;
73779;SDS011;62093;37.614;15.072;2022-08-21T04:47:16;4.75;;;2.60;;
73779;SDS011;62093;37.614;15.072;2022-08-21T04:49:43;4.90;;;2.53;;
73779;SDS011;62093;37.614;15.072;2022-08-21T04:52:09;4.57;;;2.20;;
73779;SDS011;62093;37.614;15.072;2022-08-21T04:54:36;4.28;;;2.35;;
73779;SDS011;62093;37.614;15.072;2022-08-21T04:57:04;4.63;;;2.28;;
73779;SDS011;62093;37.614;15.072;2022-08-21T04:59:38;4.72;;;2.20;;
73779;SDS011;62093;37.614;15.072;2022-08-21T05:02:08;4.67;;;2.27;;
73779;SDS011;62093;37.614;15.072;2022-08-21T05:04:36;4.60;;;2.53;;
73779;SDS011;62093;37.614;15.072;2022-08-21T05:07:09;4.65;;;2.53;;
73779;SDS011;62093;37.614;15.072;2022-08-21T05:09:40;4.10;;;2.20;;
73779;SDS011;62093;37.614;15.072;2022-08-21T05:12:06;4.93;;;2.33;;
73779;SDS011;62093;37.614;15.072;2022-08-21T05:14:33;4.60;;;2.47;;
73779;SDS011;62093;37.614;15.072;2022-08-21T05:16:58;4.90;;;2.60;;
73779;SDS011;62093;37.614;15.072;2022-08-21T05:19:24;4.65;;;2.50;;
73779;SDS011;62093;37.614;15.072;2022-08-21T05:21:51;4.50;;;2.60;;
73779;SDS011;62093;37.614;15.072;2022-08-21T05:24:17;5.10;;;2.40;;
73779;SDS011;62093;37.614;15.072;2022-08-21T05:26:43;5.55;;;2.33;;
73779;SDS011;62093;37.614;15.072;2022-08-21T05:29:10;3.90;;;2.17;;
73779;SDS011;62093;37.614;15.072;2022-08-21T05:31:36;4.45;;;1.90;;
73779;SDS011;62093;37.614;15.072;2022-08-21T05:34:02;4.40;;;2.30;;
73779;SDS011;62093;37.614;15.072;2022-08-21T05:36:29;4.20;;;2.00;;
73779;SDS011;62093;37.614;15.072;2022-08-21T05:38:55;4.50;;;2.10;;
73779;SDS011;62093;37.614;15.072;2022-08-21T05:41:21;4.10;;;2.17;;
73779;SDS011;62093;37.614;15.072;2022-08-21T05:43:47;4.68;;;2.20;;
73779;SDS011;62093;37.614;15.072;2022-08-21T05:46:13;4.37;;;2.27;;
73779;SDS011;62093;37.614;15.072;2022-08-21T05:48:39;4.40;;;2.45;;
73779;SDS011;62093;37.614;15.072;2022-08-21T05:51:09;4.82;;;2.28;;
73779;SDS011;62093;37.614;15.072;2022-08-21T05:53:37;4.25;;;2.35;;
73779;SDS011;62093;37.614;15.072;2022-08-21T05:56:03;4.07;;;1.90;;
73779;SDS011;62093;37.614;15.072;2022-08-21T05:58:32;4.82;;;2.10;;
73779;SDS011;62093;37.614;15.072;2022-08-21T06:00:58;4.55;;;2.08;;
73779;SDS011;62093;37.614;15.072;2022-08-21T06:03:27;4.55;;;2.20;;
73779;SDS011;62093;37.614;15.072;2022-08-21T06:05:55;4.97;;;1.90;;
73779;SDS011;62093;37.614;15.072;2022-08-21T06:08:22;4.60;;;2.27;;
73779;SDS011;62093;37.614;15.072;2022-08-21T06:10:49;4.25;;;2.00;;
73779;SDS011;62093;37.614;15.072;2022-08-21T06:13:17;4.07;;;2.20;;
73779;SDS011;62093;37.614;15.072;2022-08-21T06:15:44;4.60;;;2.30;;
73779;SDS011;62093;37.614;15.072;2022-08-21T06:18:10;4.95;;;1.98;;
73779;SDS011;62093;37.614;15.072;2022-08-21T06:20:37;5.13;;;2.30;;
73779;SDS011;62093;37.614;15.072;2022-08-21T06:23:03;4.43;;;2.30;;
73779;SDS011;62093;37.614;15.072;2022-08-21T06:25:29;4.03;;;2.00;;
73779;SDS011;62093;37.614;15.072;2022-08-21T06:28:05;3.92;;;1.95;;
73779;SDS011;62093;37.614;15.072;2022-08-21T06:30:33;4.28;;;2.25;;
73779;SDS011;62093;37.614;15.072;2022-08-21T06:33:01;4.50;;;1.97;;
73779;SDS011;62093;37.614;15.072;2022-08-21T06:35:28;4.47;;;1.70;;
73779;SDS011;62093;37.614;15.072;2022-08-21T06:37:54;4.32;;;2.00;;
73779;SDS011;62093;37.614;15.072;2022-08-21T06:40:21;4.85;;;2.30;;
73779;SDS011;62093;37.614;15.072;2022-08-21T06:42:47;3.92;;;1.90;;
73779;SDS011;62093;37.614;15.072;2022-08-21T06:45:13;4.97;;;2.20;;
73779;SDS011;62093;37.614;15.072;2022-08-21T06:47:39;3.92;;;2.10;;
73779;SDS011;62093;37.614;15.072;2022-08-21T06:50:05;5.00;;;2.22;;
73779;SDS011;62093;37.614;15.072;2022-08-21T06:52:33;3.90;;;1.75;;
73779;SDS011;62093;37.614;15.072;2022-08-21T06:55:04;4.23;;;1.90;;
73779;SDS011;62093;37.614;15.072;2022-08-21T06:57:32;4.00;;;2.17;;
73779;SDS011;62093;37.614;15.072;2022-08-21T06:59:58;4.00;;;1.95;;
73779;SDS011;62093;37.614;15.072;2022-08-21T07:02:24;3.90;;;1.90;;
73779;SDS011;62093;37.614;15.072;2022-08-21T07:04:50;3.80;;;2.10;;
73779;SDS011;62093;37.614;15.072;2022-08-21T07:07:16;4.15;;;2.10;;
73779;SDS011;62093;37.614;15.072;2022-08-21T07:09:42;4.63;;;2.20;;
73779;SDS011;62093;37.614;15.072;2022-08-21T07:12:08;4.20;;;2.10;;
73779;SDS011;62093;37.614;15.072;2022-08-21T07:14:35;3.90;;;1.83;;
73779;SDS011;62093;37.614;15.072;2022-08-21T07:17:01;4.47;;;2.22;;
73779;SDS011;62093;37.614;15.072;2022-08-21T07:19:27;4.40;;;2.28;;
73779;SDS011;62093;37.614;15.072;2022-08-21T07:21:54;4.40;;;1.95;;
73779;SDS011;62093;37.614;15.072;2022-08-21T07:24:23;4.33;;;1.97;;
73779;SDS011;62093;37.614;15.072;2022-08-21T07:26:49;4.28;;;1.85;;
73779;SDS011;62093;37.614;15.072;2022-08-21T07:29:15;4.15;;;1.92;;
73779;SDS011;62093;37.614;15.072;2022-08-21T07:31:40;4.73;;;1.90;;
73779;SDS011;62093;37.614;15.072;2022-08-21T07:34:06;4.13;;;2.10;;
73779;SDS011;62093;37.614;15.072;2022-08-21T07:36:33;4.53;;;2.40;;
73779;SDS011;62093;37.614;15.072;2022-08-21T07:38:59;4.00;;;1.93;;
73779;SDS011;62093;37.614;15.072;2022-08-21T07:41:26;3.92;;;2.00;;
73779;SDS011;62093;37.614;15.072;2022-08-21T07:43:54;4.00;;;1.88;;
73779;SDS011;62093;37.614;15.072;2022-08-21T07:46:22;4.38;;;2.10;;
73779;SDS011;62093;37.614;15.072;2022-08-21T07:48:49;4.20;;;1.98;;
73779;SDS011;62093;37.614;15.072;2022-08-21T07:51:16;3.90;;;1.90;;
73779;SDS011;62093;37.614;15.072;2022-08-21T07:53:47;3.95;;;1.98;;
73779;SDS011;62093;37.614;15.072;2022-08-21T07:56:15;4.00;;;2.10;;
73779;SDS011;62093;37.614;15.072;2022-08-21T07:58:41;3.83;;;1.80;;
73779;SDS011;62093;37.614;15.072;2022-08-21T08:01:07;3.77;;;1.80;;
73779;SDS011;62093;37.614;15.072;2022-08-21T08:03:32;3.65;;;1.85;;
73779;SDS011;62093;37.614;15.072;2022-08-21T08:05:59;3.55;;;1.60;;
73779;SDS011;62093;37.614;15.072;2022-08-21T08:08:25;4.07;;;1.70;;
73779;SDS011;62093;37.614;15.072;2022-08-21T08:10:51;4.50;;;2.00;;
73779;SDS011;62093;37.614;15.072;2022-08-21T08:13:18;3.80;;;1.70;;
73779;SDS011;62093;37.614;15.072;2022-08-21T08:15:44;3.83;;;1.90;;
73779;SDS011;62093;37.614;15.072;2022-08-21T08:18:10;4.67;;;2.00;;
73779;SDS011;62093;37.614;15.072;2022-08-21T08:20:36;3.60;;;1.80;;
73779;SDS011;62093;37.614;15.072;2022-08-21T08:23:02;4.00;;;1.90;;
73779;SDS011;62093;37.614;15.072;2022-08-21T08:25:28;4.60;;;1.92;;
73779;SDS011;62093;37.614;15.072;2022-08-21T08:27:54;4.37;;;2.10;;
73779;SDS011;62093;37.614;15.072;2022-08-21T08:30:20;3.78;;;1.70;;
73779;SDS011;62093;37.614;15.072;2022-08-21T08:32:47;4.10;;;1.85;;
73779;SDS011;62093;37.614;15.072;2022-08-21T08:35:14;3.83;;;1.90;;
73779;SDS011;62093;37.614;15.072;2022-08-21T08:37:41;4.03;;;2.00;;
73779;SDS011;62093;37.614;15.072;2022-08-21T08:40:13;4.07;;;1.80;;
73779;SDS011;62093;37.614;15.072;2022-08-21T08:42:43;4.40;;;1.88;;
73779;SDS011;62093;37.614;15.072;2022-08-21T08:45:10;4.10;;;2.20;;
73779;SDS011;62093;37.614;15.072;2022-08-21T08:47:45;3.80;;;1.83;;
73779;SDS011;62093;37.614;15.072;2022-08-21T08:50:38;3.70;;;1.70;;
73779;SDS011;62093;37.614;15.072;2022-08-21T08:53:20;3.67;;;1.70;;
73779;SDS011;62093;37.614;15.072;2022-08-21T08:55:51;4.00;;;2.00;;
73779;SDS011;62093;37.614;15.072;2022-08-21T08:58:28;4.00;;;1.92;;
73779;SDS011;62093;37.614;15.072;2022-08-21T09:00:58;3.95;;;1.80;;
73779;SDS011;62093;37.614;15.072;2022-08-21T09:03:25;3.80;;;1.93;;
73779;SDS011;62093;37.614;15.072;2022-08-21T09:11:39;3.90;;;1.95;;
73779;SDS011;62093;37.614;15.072;2022-08-21T09:20:21;4.00;;;2.00;;
73779;SDS011;62093;37.614;15.072;2022-08-21T09:22:39;4.35;;;2.13;;
73779;SDS011;62093;37.614;15.072;2022-08-21T09:27:49;3.72;;;1.95;;
73779;SDS011;62093;37.614;15.072;2022-08-21T09:30:15;3.90;;;1.97;;
73779;SDS011;62093;37.614;15.072;2022-08-21T09:32:42;4.30;;;1.70;;
73779;SDS011;62093;37.614;15.072;2022-08-21T09:35:13;3.92;;;2.00;;
73779;SDS011;62093;37.614;15.072;2022-08-21T09:40:46;3.80;;;1.98;;
73779;SDS011;62093;37.614;15.072;2022-08-21T09:45:35;3.95;;;2.03;;
73779;SDS011;62093;37.614;15.072;2022-08-21T09:50:49;3.83;;;1.80;;
73779;SDS011;62093;37.614;15.072;2022-08-21T09:58:36;3.80;;;1.60;;
73779;SDS011;62093;37.614;15.072;2022-08-21T10:01:06;3.78;;;1.77;;
73779;SDS011;62093;37.614;15.072;2022-08-21T10:03:43;3.80;;;1.90;;
73779;SDS011;62093;37.614;15.072;2022-08-21T10:06:09;3.78;;;2.00;;
73779;SDS011;62093;37.614;15.072;2022-08-21T10:08:45;3.95;;;2.03;;
73779;SDS011;62093;37.614;15.072;2022-08-21T10:11:12;3.70;;;1.95;;
73779;SDS011;62093;37.614;15.072;2022-08-21T10:21:56;4.15;;;1.92;;
73779;SDS011;62093;37.614;15.072;2022-08-21T10:24:33;4.32;;;2.20;;
73779;SDS011;62093;37.614;15.072;2022-08-21T10:30:04;3.90;;;1.85;;
73779;SDS011;62093;37.614;15.072;2022-08-21T10:33:16;4.00;;;1.77;;
73779;SDS011;62093;37.614;15.072;2022-08-21T10:35:33;3.70;;;1.90;;
73779;SDS011;62093;37.614;15.072;2022-08-21T10:47:02;3.70;;;1.52;;
73779;SDS011;62093;37.614;15.072;2022-08-21T10:54:59;3.80;;;1.80;;
73779;SDS011;62093;37.614;15.072;2022-08-21T10:57:40;3.65;;;1.80;;
73779;SDS011;62093;37.614;15.072;2022-08-21T11:00:13;4.10;;;2.10;;
73779;SDS011;62093;37.614;15.072;2022-08-21T11:05:35;3.75;;;1.85;;
73779;SDS011;62093;37.614;15.072;2022-08-21T11:08:37;3.73;;;1.90;;
73779;SDS011;62093;37.614;15.072;2022-08-21T11:11:07;3.90;;;2.00;;
73779;SDS011;62093;37.614;15.072;2022-08-21T11:13:40;3.90;;;1.85;;
73779;SDS011;62093;37.614;15.072;2022-08-21T11:16:21;3.80;;;1.73;;
73779;SDS011;62093;37.614;15.072;2022-08-21T11:18:52;3.95;;;1.85;;
73779;SDS011;62093;37.614;15.072;2022-08-21T11:43:12;3.70;;;1.65;;
73779;SDS011;62093;37.614;15.072;2022-08-21T11:51:51;3.70;;;1.75;;
73779;SDS011;62093;37.614;15.072;2022-08-21T11:54:44;4.35;;;2.00;;
73779;SDS011;62093;37.614;15.072;2022-08-21T11:57:20;4.25;;;1.95;;
73779;SDS011;62093;37.614;15.072;2022-08-21T12:00:05;4.22;;;2.03;;
73779;SDS011;62093;37.614;15.072;2022-08-21T12:02:45;4.17;;;1.93;;
73779;SDS011;62093;37.614;15.072;2022-08-21T12:05:27;3.72;;;1.67;;
73779;SDS011;62093;37.614;15.072;2022-08-21T12:10:39;3.65;;;1.70;;
73779;SDS011;62093;37.614;15.072;2022-08-21T12:13:30;4.00;;;1.67;;
73779;SDS011;62093;37.614;15.072;2022-08-21T12:21:51;3.88;;;1.83;;
73779;SDS011;62093;37.614;15.072;2022-08-21T12:24:20;3.88;;;1.77;;
73779;SDS011;62093;37.614;15.072;2022-08-21T12:29:52;3.77;;;1.67;;
73779;SDS011;62093;37.614;15.072;2022-08-21T12:32:29;4.30;;;1.90;;
73779;SDS011;62093;37.614;15.072;2022-08-21T12:43:28;3.70;;;1.80;;
73779;SDS011;62093;37.614;15.072;2022-08-21T12:46:04;3.70;;;1.88;;
73779;SDS011;62093;37.614;15.072;2022-08-21T12:51:17;4.13;;;2.03;;
73779;SDS011;62093;37.614;15.072;2022-08-21T12:53:48;4.03;;;1.92;;
73779;SDS011;62093;37.614;15.072;2022-08-21T12:56:19;3.90;;;1.73;;
73779;SDS011;62093;37.614;15.072;2022-08-21T12:59:06;3.70;;;1.90;;
73779;SDS011;62093;37.614;15.072;2022-08-21T13:01:37;3.50;;;1.50;;
73779;SDS011;62093;37.614;15.072;2022-08-21T13:04:10;3.60;;;1.80;;
73779;SDS011;62093;37.614;15.072;2022-08-21T13:06:38;3.67;;;1.60;;
73779;SDS011;62093;37.614;15.072;2022-08-21T13:09:12;4.00;;;1.77;;
73779;SDS011;62093;37.614;15.072;2022-08-21T13:11:41;3.60;;;1.70;;
73779;SDS011;62093;37.614;15.072;2022-08-21T13:14:19;4.05;;;1.95;;
73779;SDS011;62093;37.614;15.072;2022-08-21T13:16:55;3.40;;;1.52;;
73779;SDS011;62093;37.614;15.072;2022-08-21T13:19:23;3.80;;;1.80;;
73779;SDS011;62093;37.614;15.072;2022-08-21T13:21:51;3.60;;;1.63;;
73779;SDS011;62093;37.614;15.072;2022-08-21T13:24:19;3.75;;;1.98;;
73779;SDS011;62093;37.614;15.072;2022-08-21T13:26:47;3.70;;;1.70;;
73779;SDS011;62093;37.614;15.072;2022-08-21T13:29:15;3.60;;;1.55;;
73779;SDS011;62093;37.614;15.072;2022-08-21T13:32:02;3.75;;;1.90;;
73779;SDS011;62093;37.614;15.072;2022-08-21T13:34:35;4.20;;;2.03;;
73779;SDS011;62093;37.614;15.072;2022-08-21T13:37:04;3.95;;;2.03;;
73779;SDS011;62093;37.614;15.072;2022-08-21T13:39:32;3.70;;;1.60;;
73779;SDS011;62093;37.614;15.072;2022-08-21T13:41:58;3.88;;;1.98;;
73779;SDS011;62093;37.614;15.072;2022-08-21T13:44:45;3.80;;;1.80;;
73779;SDS011;62093;37.614;15.072;2022-08-21T13:47:12;4.10;;;1.60;;
73779;SDS011;62093;37.614;15.072;2022-08-21T13:49:41;4.00;;;1.75;;
73779;SDS011;62093;37.614;15.072;2022-08-21T13:54:41;3.83;;;1.88;;
73779;SDS011;62093;37.614;15.072;2022-08-21T13:57:16;4.20;;;1.70;;
73779;SDS011;62093;37.614;15.072;2022-08-21T13:59:43;3.20;;;1.48;;
73779;SDS011;62093;37.614;15.072;2022-08-21T14:02:13;4.05;;;1.95;;
73779;SDS011;62093;37.614;15.072;2022-08-21T14:07:21;3.75;;;1.83;;
73779;SDS011;62093;37.614;15.072;2022-08-21T14:09:52;3.80;;;1.80;;
73779;SDS011;62093;37.614;15.072;2022-08-21T14:12:23;3.78;;;1.75;;
73779;SDS011;62093;37.614;15.072;2022-08-21T14:15:03;3.33;;;1.60;;
73779;SDS011;62093;37.614;15.072;2022-08-21T14:17:32;3.92;;;1.77;;
73779;SDS011;62093;37.614;15.072;2022-08-21T14:22:52;3.50;;;1.57;;
73779;SDS011;62093;37.614;15.072;2022-08-21T14:27:52;3.47;;;1.50;;
73779;SDS011;62093;37.614;15.072;2022-08-21T14:30:22;3.67;;;1.42;;
73779;SDS011;62093;37.614;15.072;2022-08-21T14:32:54;3.80;;;1.87;;
73779;SDS011;62093;37.614;15.072;2022-08-21T14:35:20;3.40;;;1.40;;
73779;SDS011;62093;37.614;15.072;2022-08-21T14:37:47;4.10;;;1.75;;
73779;SDS011;62093;37.614;15.072;2022-08-21T14:40:15;3.70;;;1.70;;
73779;SDS011;62093;37.614;15.072;2022-08-21T14:42:43;3.97;;;1.92;;
73779;SDS011;62093;37.614;15.072;2022-08-21T14:45:15;3.70;;;1.63;;
73779;SDS011;62093;37.614;15.072;2022-08-21T14:47:45;3.95;;;1.73;;
73779;SDS011;62093;37.614;15.072;2022-08-21T14:50:11;3.85;;;1.90;;
73779;SDS011;62093;37.614;15.072;2022-08-21T14:52:38;3.58;;;1.50;;
73779;SDS011;62093;37.614;15.072;2022-08-21T14:55:05;3.53;;;1.55;;
73779;SDS011;62093;37.614;15.072;2022-08-21T14:57:32;3.73;;;1.67;;
73779;SDS011;62093;37.614;15.072;2022-08-21T14:59:59;3.80;;;1.75;;
73779;SDS011;62093;37.614;15.072;2022-08-21T15:02:25;3.80;;;1.83;;
73779;SDS011;62093;37.614;15.072;2022-08-21T15:04:52;3.80;;;1.75;;
73779;SDS011;62093;37.614;15.072;2022-08-21T15:07:17;3.80;;;1.63;;
73779;SDS011;62093;37.614;15.072;2022-08-21T15:09:43;3.65;;;1.60;;
73779;SDS011;62093;37.614;15.072;2022-08-21T15:12:09;3.45;;;1.50;;
73779;SDS011;62093;37.614;15.072;2022-08-21T15:14:39;3.87;;;1.80;;
73779;SDS011;62093;37.614;15.072;2022-08-21T15:17:08;4.13;;;2.00;;
73779;SDS011;62093;37.614;15.072;2022-08-21T15:19:35;3.70;;;1.77;;
73779;SDS011;62093;37.614;15.072;2022-08-21T15:22:02;3.90;;;1.80;;
73779;SDS011;62093;37.614;15.072;2022-08-21T15:24:27;3.88;;;1.75;;
73779;SDS011;62093;37.614;15.072;2022-08-21T15:26:54;3.90;;;1.80;;
73779;SDS011;62093;37.614;15.072;2022-08-21T15:29:20;3.80;;;1.60;;
73779;SDS011;62093;37.614;15.072;2022-08-21T15:31:51;3.72;;;1.70;;
73779;SDS011;62093;37.614;15.072;2022-08-21T15:34:28;3.90;;;1.60;;
73779;SDS011;62093;37.614;15.072;2022-08-21T15:36:56;3.57;;;1.70;;
73779;SDS011;62093;37.614;15.072;2022-08-21T15:39:24;3.67;;;1.63;;
73779;SDS011;62093;37.614;15.072;2022-08-21T15:41:51;3.58;;;1.50;;
73779;SDS011;62093;37.614;15.072;2022-08-21T15:44:17;4.00;;;1.67;;
73779;SDS011;62093;37.614;15.072;2022-08-21T15:46:43;3.90;;;1.73;;
73779;SDS011;62093;37.614;15.072;2022-08-21T15:49:10;3.37;;;1.53;;
73779;SDS011;62093;37.614;15.072;2022-08-21T15:51:36;3.83;;;1.80;;
73779;SDS011;62093;37.614;15.072;2022-08-21T15:54:02;3.55;;;1.70;;
73779;SDS011;62093;37.614;15.072;2022-08-21T15:56:35;4.10;;;1.70;;
73779;SDS011;62093;37.614;15.072;2022-08-21T15:59:04;4.20;;;1.90;;
73779;SDS011;62093;37.614;15.072;2022-08-21T16:01:33;3.88;;;1.70;;
73779;SDS011;62093;37.614;15.072;2022-08-21T16:04:01;4.28;;;2.00;;
73779;SDS011;62093;37.614;15.072;2022-08-21T16:06:28;3.97;;;1.88;;
73779;SDS011;62093;37.614;15.072;2022-08-21T16:08:54;4.15;;;1.60;;
73779;SDS011;62093;37.614;15.072;2022-08-21T16:11:20;3.90;;;1.63;;
73779;SDS011;62093;37.614;15.072;2022-08-21T16:13:46;3.90;;;1.80;;
73779;SDS011;62093;37.614;15.072;2022-08-21T16:16:16;3.70;;;1.70;;
73779;SDS011;62093;37.614;15.072;2022-08-21T16:18:44;4.10;;;1.80;;
73779;SDS011;62093;37.614;15.072;2022-08-21T16:21:11;3.55;;;1.52;;
73779;SDS011;62093;37.614;15.072;2022-08-21T16:23:37;3.70;;;1.70;;
73779;SDS011;62093;37.614;15.072;2022-08-21T16:26:05;3.97;;;1.67;;
73779;SDS011;62093;37.614;15.072;2022-08-21T16:28:33;4.10;;;1.77;;
73779;SDS011;62093;37.614;15.072;2022-08-21T16:31:01;3.97;;;1.63;;
73779;SDS011;62093;37.614;15.072;2022-08-21T16:33:32;5.20;;;1.70;;
73779;SDS011;62093;37.614;15.072;2022-08-21T16:36:00;3.70;;;1.55;;
73779;SDS011;62093;37.614;15.072;2022-08-21T16:38:26;4.38;;;2.03;;
73779;SDS011;62093;37.614;15.072;2022-08-21T16:40:53;3.60;;;1.58;;
73779;SDS011;62093;37.614;15.072;2022-08-21T16:43:20;3.40;;;1.65;;